N694PB KMDW-KBUF
Flight info
| Callsign | N694PB |
|---|---|
| Flight time | 1h 20m |
| Altitude | 29000 |
| Route | KUBBS J547 FNT Q818 WOZEE |
| Aircraft | TBM9/L-SDFGRWY/L |
Departure
| Time | 2026-05-08 18:55 |
|---|---|
| Airport | Chicago Midway International Airport (KMDW) |
Arrival
| Time | 2026-05-08 20:16 |
|---|---|
| Airport | Buffalo Niagara International Airport (KBUF) |
| Time | Latitude | Longitude | Altitude | Speed | Heading |
|---|---|---|---|---|---|
| 2026-05-08 18:47 | 41.78147 | -87.75268 | 624 ft | 0 kts | 180° |
| 2026-05-08 18:52 | 41.78135 | -87.75287 | 624 ft | 9 kts | 257° |
| 2026-05-08 18:52 | 41.78188 | -87.75385 | 627 ft | 14 kts | 35° |
| 2026-05-08 18:52 | 41.78288 | -87.75252 | 624 ft | 26 kts | 43° |
| 2026-05-08 18:53 | 41.78406 | -87.75112 | 629 ft | 26 kts | 46° |
| 2026-05-08 18:53 | 41.78569 | -87.74897 | 627 ft | 35 kts | 47° |
| 2026-05-08 18:53 | 41.78763 | -87.74701 | 630 ft | 35 kts | 41° |
| 2026-05-08 18:53 | 41.78886 | -87.74546 | 626 ft | 14 kts | 44° |
| 2026-05-08 18:54 | 41.78946 | -87.74534 | 627 ft | 9 kts | 322° |
| 2026-05-08 18:54 | 41.78933 | -87.74639 | 631 ft | 29 kts | 229° |
| 2026-05-08 18:54 | 41.78656 | -87.74995 | 623 ft | 81 kts | 222° |
| 2026-05-08 18:54 | 41.78191 | -87.75590 | 854 ft | 97 kts | 220° |
| 2026-05-08 18:55 | 41.77864 | -87.77698 | 1092 ft | 163 kts | 306° |
| 2026-05-08 18:55 | 41.78887 | -87.78480 | 1326 ft | 181 kts | 354° |
| 2026-05-08 18:55 | 41.80085 | -87.78039 | 1869 ft | 183 kts | 31° |
| 2026-05-08 18:56 | 41.81203 | -87.77168 | 2379 ft | 186 kts | 29° |
| 2026-05-08 18:56 | 41.82339 | -87.76330 | 2965 ft | 189 kts | 29° |
| 2026-05-08 18:56 | 41.83485 | -87.75458 | 3576 ft | 189 kts | 30° |
| 2026-05-08 18:56 | 41.84633 | -87.74621 | 4285 ft | 188 kts | 27° |
| 2026-05-08 18:57 | 41.85789 | -87.73761 | 4845 ft | 193 kts | 31° |
| 2026-05-08 18:57 | 41.86947 | -87.72854 | 5352 ft | 192 kts | 27° |
| 2026-05-08 18:57 | 41.88123 | -87.71984 | 5811 ft | 194 kts | 27° |
| 2026-05-08 18:57 | 41.89304 | -87.71095 | 6294 ft | 195 kts | 28° |
| 2026-05-08 18:58 | 41.90483 | -87.70194 | 6827 ft | 196 kts | 27° |
| 2026-05-08 18:58 | 41.91680 | -87.69305 | 7318 ft | 198 kts | 26° |
| 2026-05-08 18:58 | 41.92889 | -87.68390 | 7774 ft | 201 kts | 26° |
| 2026-05-08 18:58 | 41.94110 | -87.67463 | 8224 ft | 203 kts | 25° |
| 2026-05-08 18:59 | 41.95346 | -87.66529 | 8687 ft | 205 kts | 25° |
| 2026-05-08 18:59 | 41.96595 | -87.65586 | 9187 ft | 207 kts | 24° |
| 2026-05-08 18:59 | 41.97854 | -87.64634 | 9683 ft | 208 kts | 24° |
| 2026-05-08 18:59 | 41.99125 | -87.63672 | 10089 ft | 211 kts | 24° |
| 2026-05-08 19:00 | 42.00408 | -87.62700 | 10506 ft | 212 kts | 23° |
| 2026-05-08 19:00 | 42.01697 | -87.61724 | 10932 ft | 213 kts | 23° |
| 2026-05-08 19:00 | 42.02995 | -87.60741 | 11364 ft | 215 kts | 22° |
| 2026-05-08 19:00 | 42.04302 | -87.59750 | 11817 ft | 217 kts | 22° |
| 2026-05-08 19:01 | 42.05619 | -87.58751 | 12238 ft | 218 kts | 22° |
| 2026-05-08 19:01 | 42.06945 | -87.57744 | 12677 ft | 219 kts | 22° |
| 2026-05-08 19:01 | 42.08278 | -87.56732 | 13116 ft | 221 kts | 21° |
| 2026-05-08 19:01 | 42.09622 | -87.55711 | 13558 ft | 222 kts | 21° |
| 2026-05-08 19:02 | 42.10974 | -87.54684 | 13960 ft | 224 kts | 21° |
| 2026-05-08 19:02 | 42.12334 | -87.53650 | 14343 ft | 225 kts | 20° |
| 2026-05-08 19:02 | 42.13704 | -87.52608 | 14723 ft | 227 kts | 20° |
| 2026-05-08 19:02 | 42.15084 | -87.51557 | 15114 ft | 228 kts | 20° |
| 2026-05-08 19:03 | 42.16473 | -87.50500 | 15502 ft | 230 kts | 20° |
| 2026-05-08 19:03 | 42.17870 | -87.49435 | 15919 ft | 231 kts | 20° |
| 2026-05-08 19:03 | 42.19274 | -87.48365 | 16320 ft | 232 kts | 20° |
| 2026-05-08 19:03 | 42.20687 | -87.47288 | 16710 ft | 234 kts | 19° |
| 2026-05-08 19:04 | 42.22109 | -87.46203 | 17103 ft | 235 kts | 19° |
| 2026-05-08 19:04 | 42.23538 | -87.45111 | 17505 ft | 237 kts | 19° |
| 2026-05-08 19:04 | 42.24977 | -87.44013 | 17888 ft | 238 kts | 19° |
| 2026-05-08 19:04 | 42.26423 | -87.42908 | 18267 ft | 240 kts | 19° |
| 2026-05-08 19:05 | 42.27857 | -87.41713 | 18598 ft | 248 kts | 28° |
| 2026-05-08 19:05 | 42.29100 | -87.40005 | 18912 ft | 262 kts | 45° |
| 2026-05-08 19:05 | 42.30012 | -87.37820 | 19236 ft | 273 kts | 63° |
| 2026-05-08 19:05 | 42.30485 | -87.35335 | 19549 ft | 280 kts | 77° |
| 2026-05-08 19:06 | 42.30827 | -87.32729 | 19858 ft | 283 kts | 77° |
| 2026-05-08 19:06 | 42.31184 | -87.30097 | 20153 ft | 286 kts | 77° |
| 2026-05-08 19:06 | 42.31542 | -87.27439 | 20460 ft | 289 kts | 77° |
| 2026-05-08 19:06 | 42.31900 | -87.24759 | 20780 ft | 291 kts | 77° |
| 2026-05-08 19:07 | 42.32262 | -87.22051 | 21099 ft | 294 kts | 77° |
| 2026-05-08 19:07 | 42.32626 | -87.19324 | 21415 ft | 296 kts | 77° |
| 2026-05-08 19:07 | 42.32993 | -87.16573 | 21729 ft | 299 kts | 77° |
| 2026-05-08 19:07 | 42.33361 | -87.13802 | 22048 ft | 301 kts | 77° |
| 2026-05-08 19:08 | 42.33732 | -87.11003 | 22365 ft | 303 kts | 78° |
| 2026-05-08 19:08 | 42.34106 | -87.08185 | 22671 ft | 306 kts | 78° |
| 2026-05-08 19:08 | 42.34481 | -87.05345 | 22987 ft | 308 kts | 78° |
| 2026-05-08 19:08 | 42.34859 | -87.02483 | 23299 ft | 311 kts | 78° |
| 2026-05-08 19:09 | 42.35239 | -86.99596 | 23586 ft | 313 kts | 78° |
| 2026-05-08 19:09 | 42.35620 | -86.96694 | 23856 ft | 315 kts | 78° |
| 2026-05-08 19:09 | 42.36003 | -86.93774 | 24143 ft | 316 kts | 78° |
| 2026-05-08 19:09 | 42.36389 | -86.90833 | 24401 ft | 319 kts | 78° |
| 2026-05-08 19:10 | 42.36773 | -86.87885 | 24758 ft | 317 kts | 78° |
| 2026-05-08 19:10 | 42.37157 | -86.84943 | 25045 ft | 318 kts | 78° |
| 2026-05-08 19:10 | 42.37541 | -86.81986 | 25308 ft | 320 kts | 78° |
| 2026-05-08 19:10 | 42.37928 | -86.79009 | 25587 ft | 322 kts | 78° |
| 2026-05-08 19:11 | 42.38310 | -86.76058 | 25838 ft | 324 kts | 78° |
| 2026-05-08 19:11 | 42.38699 | -86.73051 | 26110 ft | 326 kts | 78° |
| 2026-05-08 19:11 | 42.39089 | -86.70025 | 26380 ft | 327 kts | 78° |
| 2026-05-08 19:11 | 42.39480 | -86.66983 | 26643 ft | 329 kts | 78° |
| 2026-05-08 19:12 | 42.39873 | -86.63924 | 26909 ft | 331 kts | 78° |
| 2026-05-08 19:12 | 42.40267 | -86.60847 | 27170 ft | 333 kts | 78° |
| 2026-05-08 19:12 | 42.40662 | -86.57754 | 27432 ft | 335 kts | 78° |
| 2026-05-08 19:12 | 42.41060 | -86.54641 | 27672 ft | 337 kts | 78° |
| 2026-05-08 19:13 | 42.41459 | -86.51506 | 27925 ft | 339 kts | 78° |
| 2026-05-08 19:13 | 42.41859 | -86.48356 | 28186 ft | 341 kts | 78° |
| 2026-05-08 19:13 | 42.42260 | -86.45189 | 28444 ft | 342 kts | 78° |
| 2026-05-08 19:13 | 42.42662 | -86.42004 | 28699 ft | 344 kts | 78° |
| 2026-05-08 19:14 | 42.43065 | -86.38804 | 28926 ft | 347 kts | 78° |
| 2026-05-08 19:14 | 42.43893 | -86.32195 | 28938 ft | 364 kts | 78° |
| 2026-05-08 19:15 | 42.44755 | -86.25293 | 28942 ft | 378 kts | 78° |
| 2026-05-08 19:15 | 42.45640 | -86.18171 | 28954 ft | 388 kts | 79° |
| 2026-05-08 19:16 | 42.46552 | -86.10899 | 28938 ft | 394 kts | 76° |
| 2026-05-08 19:16 | 42.48101 | -86.03775 | 28941 ft | 396 kts | 70° |
| 2026-05-08 19:17 | 42.49670 | -85.96613 | 28939 ft | 397 kts | 70° |
| 2026-05-08 19:17 | 42.51268 | -85.89455 | 28932 ft | 397 kts | 70° |
| 2026-05-08 19:18 | 42.52846 | -85.82284 | 28923 ft | 397 kts | 70° |
| 2026-05-08 19:18 | 42.54429 | -85.75107 | 28936 ft | 397 kts | 70° |
| 2026-05-08 19:19 | 42.56002 | -85.67931 | 28930 ft | 397 kts | 70° |
| 2026-05-08 19:19 | 42.57572 | -85.60750 | 28923 ft | 397 kts | 70° |
| 2026-05-08 19:20 | 42.59138 | -85.53563 | 28917 ft | 397 kts | 70° |
| 2026-05-08 19:20 | 42.60689 | -85.46423 | 28914 ft | 397 kts | 70° |
| 2026-05-08 19:21 | 42.62245 | -85.39232 | 28908 ft | 397 kts | 70° |
| 2026-05-08 19:21 | 42.63808 | -85.31990 | 28906 ft | 397 kts | 70° |
| 2026-05-08 19:22 | 42.65345 | -85.24840 | 28907 ft | 397 kts | 70° |
| 2026-05-08 19:22 | 42.66888 | -85.17639 | 28901 ft | 397 kts | 71° |
| 2026-05-08 19:23 | 42.68439 | -85.10440 | 28897 ft | 397 kts | 70° |
| 2026-05-08 19:23 | 42.69991 | -85.03242 | 28895 ft | 397 kts | 70° |
| 2026-05-08 19:24 | 42.71535 | -84.96043 | 28891 ft | 397 kts | 70° |
| 2026-05-08 19:24 | 42.73076 | -84.88834 | 28886 ft | 397 kts | 70° |
| 2026-05-08 19:25 | 42.74613 | -84.81625 | 28888 ft | 397 kts | 71° |
| 2026-05-08 19:25 | 42.76144 | -84.74415 | 28907 ft | 397 kts | 71° |
| 2026-05-08 19:26 | 42.77672 | -84.67194 | 28904 ft | 397 kts | 71° |
| 2026-05-08 19:26 | 42.79195 | -84.59970 | 28905 ft | 397 kts | 71° |
| 2026-05-08 19:27 | 42.80713 | -84.52747 | 28904 ft | 397 kts | 71° |
| 2026-05-08 19:27 | 42.82213 | -84.45514 | 28905 ft | 397 kts | 71° |
| 2026-05-08 19:28 | 42.83715 | -84.38273 | 28908 ft | 397 kts | 71° |
| 2026-05-08 19:28 | 42.85211 | -84.31025 | 28914 ft | 397 kts | 71° |
| 2026-05-08 19:29 | 42.86701 | -84.23784 | 28918 ft | 397 kts | 71° |
| 2026-05-08 19:29 | 42.88190 | -84.16526 | 28923 ft | 397 kts | 71° |
| 2026-05-08 19:30 | 42.89671 | -84.09272 | 28913 ft | 397 kts | 71° |
| 2026-05-08 19:30 | 42.91149 | -84.02012 | 28910 ft | 397 kts | 71° |
| 2026-05-08 19:31 | 42.92621 | -83.94754 | 28912 ft | 397 kts | 71° |
| 2026-05-08 19:31 | 42.94091 | -83.87486 | 28912 ft | 397 kts | 71° |
| 2026-05-08 19:32 | 42.95544 | -83.80268 | 28909 ft | 397 kts | 71° |
| 2026-05-08 19:32 | 42.96747 | -83.72901 | 28925 ft | 400 kts | 84° |
| 2026-05-08 19:33 | 42.97116 | -83.65309 | 28919 ft | 401 kts | 85° |
| 2026-05-08 19:33 | 42.97488 | -83.57715 | 28919 ft | 401 kts | 86° |
| 2026-05-08 19:34 | 42.97844 | -83.50118 | 28917 ft | 401 kts | 85° |
| 2026-05-08 19:34 | 42.98144 | -83.43751 | 28922 ft | 401 kts | 85° |
| 2026-05-08 19:35 | 42.98494 | -83.36149 | 28919 ft | 401 kts | 85° |
| 2026-05-08 19:35 | 42.98841 | -83.28546 | 28916 ft | 401 kts | 85° |
| 2026-05-08 19:36 | 42.99179 | -83.20990 | 28915 ft | 401 kts | 86° |
| 2026-05-08 19:36 | 42.99518 | -83.13334 | 28910 ft | 401 kts | 85° |
| 2026-05-08 19:37 | 42.99845 | -83.05778 | 28904 ft | 401 kts | 85° |
| 2026-05-08 19:37 | 43.00172 | -82.98166 | 28905 ft | 401 kts | 86° |
| 2026-05-08 19:38 | 43.00492 | -82.90553 | 28906 ft | 401 kts | 86° |
| 2026-05-08 19:38 | 43.00808 | -82.82943 | 28922 ft | 401 kts | 86° |
| 2026-05-08 19:39 | 43.01119 | -82.75334 | 28911 ft | 400 kts | 86° |
| 2026-05-08 19:39 | 43.01424 | -82.67736 | 28910 ft | 400 kts | 86° |
| 2026-05-08 19:40 | 43.01724 | -82.60136 | 28912 ft | 400 kts | 86° |
| 2026-05-08 19:40 | 43.02019 | -82.52539 | 28914 ft | 400 kts | 86° |
| 2026-05-08 19:41 | 43.02309 | -82.44936 | 28899 ft | 400 kts | 86° |
| 2026-05-08 19:41 | 43.02593 | -82.37346 | 28898 ft | 399 kts | 86° |
| 2026-05-08 19:42 | 43.02873 | -82.29763 | 28898 ft | 399 kts | 86° |
| 2026-05-08 19:42 | 43.03146 | -82.22180 | 28895 ft | 400 kts | 86° |
| 2026-05-08 19:43 | 43.03416 | -82.14595 | 28898 ft | 400 kts | 86° |
| 2026-05-08 19:43 | 43.03680 | -82.07006 | 28900 ft | 400 kts | 86° |
| 2026-05-08 19:44 | 43.03940 | -81.99418 | 28903 ft | 400 kts | 86° |
| 2026-05-08 19:44 | 43.04193 | -81.91829 | 28908 ft | 400 kts | 86° |
| 2026-05-08 19:45 | 43.04443 | -81.84240 | 28911 ft | 400 kts | 86° |
| 2026-05-08 19:45 | 43.04686 | -81.76648 | 28918 ft | 400 kts | 86° |
| 2026-05-08 19:46 | 43.04926 | -81.69061 | 28922 ft | 400 kts | 86° |
| 2026-05-08 19:46 | 43.05275 | -81.57640 | 28937 ft | 402 kts | 86° |
| 2026-05-08 19:47 | 43.05503 | -81.50007 | 28931 ft | 402 kts | 86° |
| 2026-05-08 19:47 | 43.05725 | -81.42375 | 28928 ft | 402 kts | 86° |
| 2026-05-08 19:48 | 43.05943 | -81.34739 | 28927 ft | 402 kts | 86° |
| 2026-05-08 19:48 | 43.06153 | -81.27158 | 28928 ft | 402 kts | 86° |
| 2026-05-08 19:49 | 43.06361 | -81.19512 | 28924 ft | 402 kts | 87° |
| 2026-05-08 19:49 | 43.06563 | -81.11863 | 28923 ft | 402 kts | 87° |
| 2026-05-08 19:50 | 43.06400 | -81.04209 | 28931 ft | 403 kts | 94° |
| 2026-05-08 19:50 | 43.06106 | -80.96554 | 28925 ft | 403 kts | 93° |
| 2026-05-08 19:51 | 43.05783 | -80.88902 | 28936 ft | 403 kts | 93° |
| 2026-05-08 19:51 | 43.05466 | -80.81261 | 28936 ft | 403 kts | 93° |
| 2026-05-08 19:52 | 43.05139 | -80.73617 | 28936 ft | 403 kts | 93° |
| 2026-05-08 19:52 | 43.04810 | -80.65978 | 28932 ft | 403 kts | 93° |
| 2026-05-08 19:53 | 43.04474 | -80.58342 | 28952 ft | 402 kts | 94° |
| 2026-05-08 19:53 | 43.04138 | -80.50708 | 28946 ft | 402 kts | 93° |
| 2026-05-08 19:54 | 43.03784 | -80.43065 | 28560 ft | 403 kts | 93° |
| 2026-05-08 19:54 | 43.03609 | -80.39242 | 28201 ft | 403 kts | 93° |
| 2026-05-08 19:54 | 43.03436 | -80.35421 | 27848 ft | 402 kts | 93° |
| 2026-05-08 19:55 | 43.03259 | -80.31607 | 27499 ft | 402 kts | 94° |
| 2026-05-08 19:55 | 43.03079 | -80.27797 | 27158 ft | 402 kts | 94° |
| 2026-05-08 19:55 | 43.02899 | -80.23990 | 26818 ft | 401 kts | 94° |
| 2026-05-08 19:55 | 43.02718 | -80.20187 | 26429 ft | 401 kts | 94° |
| 2026-05-08 19:56 | 43.02539 | -80.16442 | 26033 ft | 400 kts | 93° |
| 2026-05-08 19:56 | 43.02357 | -80.12646 | 25629 ft | 400 kts | 93° |
| 2026-05-08 19:56 | 43.02173 | -80.08864 | 25233 ft | 399 kts | 93° |
| 2026-05-08 19:56 | 43.01987 | -80.05083 | 24842 ft | 398 kts | 94° |
| 2026-05-08 19:57 | 43.01802 | -80.01310 | 24458 ft | 398 kts | 94° |
| 2026-05-08 19:57 | 43.01617 | -79.97546 | 24078 ft | 397 kts | 94° |
| 2026-05-08 19:57 | 43.01429 | -79.93785 | 23703 ft | 396 kts | 94° |
| 2026-05-08 19:57 | 43.01240 | -79.90029 | 23299 ft | 396 kts | 94° |
| 2026-05-08 19:58 | 43.01051 | -79.86284 | 22859 ft | 396 kts | 94° |
| 2026-05-08 19:58 | 43.00859 | -79.82530 | 22421 ft | 396 kts | 94° |
| 2026-05-08 19:58 | 43.00666 | -79.78789 | 21987 ft | 395 kts | 94° |
| 2026-05-08 19:58 | 43.00474 | -79.75046 | 21562 ft | 394 kts | 94° |
| 2026-05-08 19:59 | 43.00281 | -79.71311 | 21142 ft | 394 kts | 94° |
| 2026-05-08 19:59 | 43.00087 | -79.67588 | 20740 ft | 393 kts | 94° |
| 2026-05-08 19:59 | 42.99892 | -79.63874 | 20330 ft | 390 kts | 94° |
| 2026-05-08 19:59 | 42.99706 | -79.60231 | 20066 ft | 382 kts | 94° |
| 2026-05-08 20:00 | 42.99520 | -79.56617 | 19599 ft | 381 kts | 94° |
| 2026-05-08 20:00 | 42.99317 | -79.53006 | 19101 ft | 381 kts | 94° |
| 2026-05-08 20:00 | 42.99117 | -79.49401 | 18600 ft | 380 kts | 94° |
| 2026-05-08 20:00 | 42.98927 | -79.45812 | 18134 ft | 378 kts | 94° |
| 2026-05-08 20:01 | 42.98740 | -79.42246 | 17626 ft | 375 kts | 94° |
| 2026-05-08 20:01 | 42.98544 | -79.38707 | 17121 ft | 372 kts | 94° |
| 2026-05-08 20:01 | 42.98350 | -79.35217 | 16634 ft | 366 kts | 94° |
| 2026-05-08 20:01 | 42.98162 | -79.31765 | 16153 ft | 362 kts | 94° |
| 2026-05-08 20:02 | 42.97975 | -79.28360 | 15680 ft | 358 kts | 94° |
| 2026-05-08 20:02 | 42.97784 | -79.24986 | 15211 ft | 354 kts | 94° |
| 2026-05-08 20:02 | 42.97596 | -79.21645 | 14750 ft | 351 kts | 94° |
| 2026-05-08 20:02 | 42.97410 | -79.18336 | 14280 ft | 348 kts | 95° |
| 2026-05-08 20:03 | 42.97225 | -79.15058 | 13815 ft | 345 kts | 95° |
| 2026-05-08 20:03 | 42.97040 | -79.11806 | 13331 ft | 342 kts | 95° |
| 2026-05-08 20:03 | 42.96854 | -79.08595 | 12875 ft | 337 kts | 95° |
| 2026-05-08 20:03 | 42.96674 | -79.05432 | 12434 ft | 332 kts | 95° |
| 2026-05-08 20:04 | 42.96494 | -79.02315 | 11995 ft | 327 kts | 95° |
| 2026-05-08 20:04 | 42.96314 | -78.99237 | 11564 ft | 323 kts | 95° |
| 2026-05-08 20:04 | 42.96093 | -78.96209 | 11145 ft | 318 kts | 102° |
| 2026-05-08 20:04 | 42.95652 | -78.93270 | 10720 ft | 315 kts | 101° |
| 2026-05-08 20:05 | 42.95366 | -78.90323 | 10306 ft | 311 kts | 98° |
| 2026-05-08 20:05 | 42.95062 | -78.87414 | 9904 ft | 308 kts | 101° |
| 2026-05-08 20:05 | 42.94680 | -78.84558 | 9458 ft | 304 kts | 102° |
| 2026-05-08 20:05 | 42.94317 | -78.81793 | 8751 ft | 286 kts | 101° |
| 2026-05-08 20:06 | 42.94025 | -78.79218 | 8057 ft | 266 kts | 99° |
| 2026-05-08 20:06 | 42.93738 | -78.76781 | 7379 ft | 256 kts | 101° |
| 2026-05-08 20:06 | 42.93437 | -78.74438 | 6984 ft | 241 kts | 101° |
| 2026-05-08 20:06 | 42.93095 | -78.72117 | 6784 ft | 258 kts | 105° |
| 2026-05-08 20:07 | 42.92742 | -78.69695 | 6427 ft | 255 kts | 97° |
| 2026-05-08 20:07 | 42.92788 | -78.67347 | 6060 ft | 243 kts | 81° |
| 2026-05-08 20:07 | 42.93411 | -78.65348 | 6036 ft | 221 kts | 51° |
| 2026-05-08 20:07 | 42.94376 | -78.63778 | 5853 ft | 216 kts | 46° |
| 2026-05-08 20:08 | 42.95320 | -78.62166 | 5567 ft | 221 kts | 59° |
| 2026-05-08 20:08 | 42.95904 | -78.60224 | 5259 ft | 222 kts | 70° |
| 2026-05-08 20:08 | 42.96411 | -78.58216 | 4881 ft | 224 kts | 70° |
| 2026-05-08 20:08 | 42.96925 | -78.56195 | 4490 ft | 226 kts | 70° |
| 2026-05-08 20:09 | 42.97439 | -78.54166 | 4107 ft | 226 kts | 70° |
| 2026-05-08 20:09 | 42.97949 | -78.52145 | 3772 ft | 224 kts | 70° |
| 2026-05-08 20:09 | 42.98489 | -78.50147 | 3451 ft | 223 kts | 69° |
| 2026-05-08 20:09 | 42.99190 | -78.48307 | 3126 ft | 217 kts | 46° |
| 2026-05-08 20:10 | 43.00426 | -78.47275 | 2921 ft | 202 kts | 8° |
| 2026-05-08 20:10 | 43.01718 | -78.47426 | 2931 ft | 180 kts | 332° |
| 2026-05-08 20:10 | 43.02522 | -78.48626 | 2924 ft | 172 kts | 291° |
| 2026-05-08 20:10 | 43.02612 | -78.50208 | 2914 ft | 169 kts | 261° |
| 2026-05-08 20:11 | 43.02381 | -78.51753 | 2937 ft | 165 kts | 260° |
| 2026-05-08 20:11 | 43.02107 | -78.53303 | 2941 ft | 170 kts | 252° |
| 2026-05-08 20:11 | 43.01673 | -78.54811 | 2953 ft | 171 kts | 249° |
| 2026-05-08 20:11 | 43.01250 | -78.56327 | 2941 ft | 172 kts | 252° |
| 2026-05-08 20:12 | 43.00782 | -78.57846 | 2933 ft | 173 kts | 249° |
| 2026-05-08 20:12 | 43.00280 | -78.59356 | 2866 ft | 175 kts | 248° |
| 2026-05-08 20:12 | 42.99785 | -78.60764 | 2671 ft | 157 kts | 250° |
| 2026-05-08 20:12 | 42.99368 | -78.62097 | 2498 ft | 150 kts | 249° |
| 2026-05-08 20:13 | 42.98936 | -78.63394 | 2321 ft | 149 kts | 248° |
| 2026-05-08 20:13 | 42.98513 | -78.64651 | 2072 ft | 143 kts | 247° |
| 2026-05-08 20:13 | 42.98099 | -78.65851 | 1810 ft | 136 kts | 245° |
| 2026-05-08 20:13 | 42.97682 | -78.66951 | 1581 ft | 129 kts | 242° |
| 2026-05-08 20:14 | 42.97247 | -78.67960 | 1437 ft | 108 kts | 240° |
| 2026-05-08 20:14 | 42.96902 | -78.68742 | 1368 ft | 93 kts | 237° |
| 2026-05-08 20:14 | 42.96532 | -78.69474 | 1300 ft | 96 kts | 229° |
| 2026-05-08 20:14 | 42.96107 | -78.70166 | 1155 ft | 94 kts | 228° |
| 2026-05-08 20:15 | 42.95672 | -78.70825 | 1010 ft | 92 kts | 223° |
| 2026-05-08 20:15 | 42.95209 | -78.71436 | 854 ft | 91 kts | 218° |
| 2026-05-08 20:15 | 42.94749 | -78.72037 | 723 ft | 90 kts | 221° |
| 2026-05-08 20:15 | 42.94345 | -78.72559 | 713 ft | 68 kts | 224° |
| 2026-05-08 20:16 | 42.94067 | -78.72927 | 706 ft | 38 kts | 226° |
| 2026-05-08 20:16 | 42.93987 | -78.73088 | 712 ft | 13 kts | 318° |
| 2026-05-08 20:16 | 42.94053 | -78.73194 | 710 ft | 16 kts | 308° |
| 2026-05-08 20:16 | 42.94126 | -78.73329 | 705 ft | 20 kts | 304° |
| 2026-05-08 20:17 | 42.94208 | -78.73481 | 703 ft | 16 kts | 306° |
| 2026-05-08 20:17 | 42.94276 | -78.73507 | 705 ft | 10 kts | 31° |
| 2026-05-08 20:17 | 42.94357 | -78.73495 | 700 ft | 14 kts | 0° |
| 2026-05-08 20:17 | 42.94455 | -78.73494 | 702 ft | 15 kts | 359° |
| 2026-05-08 20:18 | 42.94529 | -78.73457 | 697 ft | 12 kts | 36° |
| 2026-05-08 20:18 | 42.94604 | -78.73382 | 702 ft | 15 kts | 37° |
| 2026-05-08 20:18 | 42.94613 | -78.73289 | 693 ft | 8 kts | 152° |
| 2026-05-08 20:18 | 42.94573 | -78.73311 | 701 ft | 1 kts | 220° |